createdAt,value
2018-09-02T00:31:39.313Z,100.00
2018-09-02T00:34:10.620Z,100.00
2018-09-02T00:36:39.828Z,100.00
2018-09-02T00:39:10.561Z,100.00
2018-09-02T00:41:40.445Z,100.00
2018-09-02T00:44:10.978Z,100.00
2018-09-02T00:46:40.192Z,100.00
2018-09-02T00:49:12.817Z,100.00
2018-09-02T00:51:42.935Z,100.00
2018-09-02T00:54:14.317Z,100.00
2018-09-02T00:56:43.595Z,100.00
2018-09-02T00:59:13.144Z,100.00
2018-09-02T01:01:42.289Z,100.00
2018-09-02T01:04:12.322Z,100.00
2018-09-02T01:06:41.541Z,100.00
2018-09-02T01:09:11.169Z,100.00
2018-09-02T01:11:40.653Z,100.00
2018-09-02T01:14:10.339Z,100.00
2018-09-02T01:16:39.887Z,100.00
2018-09-02T01:19:10.043Z,100.00
2018-09-02T01:21:40.187Z,100.00
2018-09-02T01:24:09.473Z,100.00
2018-09-02T01:26:38.831Z,100.00
2018-09-02T01:29:08.423Z,100.00
2018-09-02T01:31:37.836Z,100.00
2018-09-02T01:34:08.327Z,100.00
2018-09-02T01:36:42.081Z,100.00
2018-09-02T01:39:11.677Z,100.00
2018-09-02T01:41:40.861Z,100.00
2018-09-02T01:44:10.413Z,100.00
2018-09-02T01:46:40.156Z,100.00
2018-09-02T01:49:10.171Z,100.00
2018-09-02T01:51:39.407Z,100.00
2018-09-02T01:54:09.209Z,100.00
2018-09-02T01:56:38.391Z,100.00
2018-09-02T01:59:07.907Z,100.00
2018-09-02T02:01:38.969Z,100.00
2018-09-02T02:04:08.160Z,100.00
2018-09-02T02:06:37.343Z,100.00
2018-09-02T02:09:09.507Z,100.00
2018-09-02T02:11:38.789Z,100.00
2018-09-02T02:14:08.693Z,100.00
2018-09-02T02:16:38.700Z,100.00
2018-09-02T02:19:08.365Z,100.00
2018-09-02T02:21:37.665Z,100.00
2018-09-02T02:24:07.134Z,100.00
2018-09-02T02:26:36.661Z,100.00
2018-09-02T02:29:06.677Z,100.00
2018-09-02T02:31:35.934Z,100.00
2018-09-02T02:34:06.345Z,100.00
2018-09-02T02:36:36.546Z,100.00
2018-09-02T02:39:08.045Z,100.00
2018-09-02T02:41:37.249Z,100.00
2018-09-02T02:44:07.209Z,100.00
2018-09-02T02:46:36.474Z,100.00
2018-09-02T02:49:06.323Z,100.00
2018-09-02T02:51:36.337Z,100.00
2018-09-02T02:54:07.340Z,100.00
2018-09-02T02:56:36.619Z,100.00
2018-09-02T02:59:07.142Z,100.00
2018-09-02T03:01:36.399Z,100.00
2018-09-02T03:04:07.165Z,100.00
2018-09-02T03:06:36.402Z,100.00
2018-09-02T03:09:10.512Z,100.00
2018-09-02T03:11:40.432Z,100.00
2018-09-02T03:14:11.981Z,100.00
2018-09-02T03:16:42.784Z,100.00
2018-09-02T03:19:12.851Z,100.00
2018-09-02T03:21:42.051Z,100.00
2018-09-02T03:24:14.208Z,100.00
2018-09-02T03:26:45.440Z,100.00
2018-09-02T03:29:14.806Z,100.00
2018-09-02T03:31:44.071Z,100.00
2018-09-02T03:34:17.544Z,100.00
2018-09-02T03:36:48.648Z,100.00
2018-09-02T03:39:19.354Z,100.00
2018-09-02T03:41:52.360Z,100.00
2018-09-02T03:44:22.166Z,100.00
2018-09-02T03:46:52.024Z,100.00
2018-09-02T03:49:22.067Z,100.00
2018-09-02T03:51:51.682Z,100.00
2018-09-02T03:56:48.403Z,100.00
2018-09-02T03:59:17.937Z,100.00
2018-09-02T04:01:49.062Z,100.00
2018-09-02T04:04:20.742Z,100.00
2018-09-02T04:06:55.422Z,100.00
2018-09-02T04:09:24.730Z,100.00
2018-09-02T04:11:54.372Z,100.00
2018-09-02T04:14:26.601Z,100.00
2018-09-02T04:16:56.149Z,100.00
2018-09-02T04:19:25.384Z,100.00
2018-09-02T04:21:54.976Z,100.00
2018-09-02T04:24:24.864Z,100.00
2018-09-02T04:26:54.156Z,100.00
2018-09-02T04:29:23.301Z,100.00
2018-09-02T04:31:52.842Z,100.00
2018-09-02T04:34:22.084Z,100.00
2018-09-02T04:36:52.056Z,100.00
2018-09-02T04:39:21.912Z,100.00
2018-09-02T04:41:51.610Z,100.00
2018-09-02T04:44:22.936Z,100.00
2018-09-02T04:46:52.532Z,100.00
2018-09-02T04:49:21.747Z,100.00
2018-09-02T04:51:51.179Z,100.00
2018-09-02T04:54:20.766Z,100.00
2018-09-02T04:56:50.359Z,100.00
2018-09-02T04:59:20.002Z,100.00
2018-09-02T05:01:50.892Z,100.00
2018-09-02T05:04:20.092Z,100.00
2018-09-02T05:06:50.009Z,100.00
2018-09-02T05:09:19.972Z,100.00
2018-09-02T05:11:50.566Z,100.00
2018-09-02T05:14:19.857Z,100.00
2018-09-02T05:16:49.447Z,100.00
2018-09-02T05:19:18.749Z,100.00
2018-09-02T05:21:48.971Z,100.00
2018-09-02T05:24:18.489Z,100.00
2018-09-02T05:26:48.553Z,100.00
2018-09-02T05:29:18.738Z,100.00
2018-09-02T05:31:48.733Z,100.00
2018-09-02T05:34:19.888Z,100.00
2018-09-02T05:36:49.933Z,100.00
2018-09-02T05:39:19.107Z,100.00
2018-09-02T05:41:49.219Z,100.00
2018-09-02T05:44:19.267Z,100.00
2018-09-02T05:46:50.743Z,100.00
2018-09-02T05:49:20.028Z,100.00
2018-09-02T05:51:49.580Z,100.00
2018-09-02T05:54:19.557Z,100.00
2018-09-02T05:56:50.211Z,100.00
2018-09-02T05:59:19.349Z,100.00
2018-09-02T06:01:49.673Z,100.00
2018-09-02T06:04:18.893Z,100.00
2018-09-02T06:06:50.201Z,100.00
2018-09-02T06:12:11.649Z,100.00
2018-09-02T06:14:41.262Z,100.00
2018-09-02T06:17:10.560Z,100.00
2018-09-02T06:19:39.653Z,100.00
2018-09-02T06:22:08.896Z,100.00
2018-09-02T06:24:38.437Z,100.00
2018-09-02T06:27:07.986Z,100.00
2018-09-02T06:29:37.113Z,100.00
2018-09-02T06:32:06.424Z,100.00
2018-09-02T06:34:35.551Z,100.00
2018-09-02T06:37:05.109Z,100.00
2018-09-02T06:39:34.451Z,100.00
2018-09-02T06:42:04.341Z,100.00
2018-09-02T06:44:33.786Z,100.00
2018-09-02T06:47:04.152Z,100.00
2018-09-02T06:49:33.944Z,100.00
2018-09-02T06:52:03.110Z,100.00
2018-09-02T06:54:34.150Z,100.00
2018-09-02T06:57:03.380Z,100.00
2018-09-02T06:59:32.657Z,100.00
2018-09-02T07:02:02.289Z,100.00
2018-09-02T07:04:31.485Z,100.00
2018-09-02T07:07:02.071Z,100.00
2018-09-02T07:09:31.271Z,100.00
2018-09-02T07:12:01.559Z,100.00
2018-09-02T07:14:31.191Z,100.00
2018-09-02T07:17:00.687Z,100.00
2018-09-02T07:19:29.948Z,100.00
2018-09-02T07:22:00.027Z,100.00
2018-09-02T07:24:29.906Z,100.00
2018-09-02T07:27:00.887Z,100.00
2018-09-02T07:29:30.502Z,100.00
2018-09-02T07:31:59.948Z,100.00
2018-09-02T07:34:29.290Z,100.00
2018-09-02T07:36:59.292Z,100.00
2018-09-02T07:39:28.523Z,100.00
2018-09-02T07:41:58.044Z,100.00
2018-09-02T07:44:27.227Z,100.00
2018-09-02T07:46:57.244Z,100.00
2018-09-02T07:49:26.438Z,100.00
2018-09-02T07:51:56.010Z,100.00
2018-09-02T07:54:25.817Z,100.00
2018-09-02T07:56:55.406Z,100.00
2018-09-02T07:59:25.307Z,100.00
2018-09-02T08:01:56.842Z,100.00
2018-09-02T08:04:26.031Z,100.00
2018-09-02T08:06:55.643Z,100.00
2018-09-02T08:09:24.887Z,100.00
2018-09-02T08:11:54.462Z,100.00
2018-09-02T08:14:23.752Z,100.00
2018-09-02T08:16:54.160Z,100.00
2018-09-02T08:19:23.349Z,100.00
2018-09-02T08:21:52.906Z,100.00
2018-09-02T08:24:22.083Z,100.00
2018-09-02T08:26:52.258Z,100.00
2018-09-02T08:29:22.070Z,100.00
2018-09-02T08:31:51.704Z,100.00
2018-09-02T08:34:20.963Z,100.00
2018-09-02T08:36:51.274Z,100.00
2018-09-02T08:39:22.847Z,100.00
2018-09-02T08:41:52.603Z,100.00
2018-09-02T08:44:22.314Z,100.00
2018-09-02T08:46:51.906Z,100.00
2018-09-02T08:49:21.226Z,100.00
2018-09-02T08:51:52.951Z,100.00
2018-09-02T08:54:22.295Z,100.00
2018-09-02T08:56:52.124Z,100.00
2018-09-02T08:59:21.373Z,100.00
2018-09-02T09:01:52.557Z,100.00
2018-09-02T09:04:21.733Z,100.00
2018-09-02T09:06:52.063Z,100.00
2018-09-02T09:09:21.505Z,100.00
2018-09-02T09:11:52.707Z,100.00
2018-09-02T09:14:22.326Z,100.00
2018-09-02T09:16:52.126Z,100.00
2018-09-02T09:19:21.659Z,100.00
2018-09-02T09:21:51.259Z,100.00
2018-09-02T09:24:20.852Z,100.00
2018-09-02T09:26:51.127Z,100.00
2018-09-02T09:29:21.113Z,100.00
2018-09-02T09:31:51.463Z,100.00
2018-09-02T09:34:21.481Z,100.00
2018-09-02T09:36:52.301Z,100.00
2018-09-02T09:39:21.568Z,100.00
2018-09-02T09:41:51.976Z,100.00
2018-09-02T09:44:21.814Z,100.00
2018-09-02T09:46:52.167Z,99.29
2018-09-02T09:49:22.031Z,98.56
2018-09-02T09:51:52.428Z,98.71
2018-09-02T09:54:21.711Z,98.42
2018-09-02T09:56:51.536Z,98.83
2018-09-02T09:59:22.436Z,98.97
2018-09-02T10:01:52.089Z,98.03
2018-09-02T10:04:21.394Z,97.82
2018-09-02T10:06:52.514Z,98.40
2018-09-02T10:09:22.029Z,97.80
2018-09-02T10:11:52.613Z,97.01
2018-09-02T10:14:21.847Z,96.85
2018-09-02T10:16:51.503Z,97.39
2018-09-02T10:19:21.895Z,97.09
2018-09-02T10:21:51.587Z,97.15
2018-09-02T10:24:21.356Z,96.77
2018-09-02T10:26:51.516Z,95.61
2018-09-02T10:29:21.533Z,95.14
2018-09-02T10:31:52.462Z,95.16
2018-09-02T10:34:22.710Z,95.52
2018-09-02T10:36:53.499Z,95.63
2018-09-02T10:39:23.053Z,95.49
2018-09-02T10:41:52.705Z,95.45
2018-09-02T10:44:21.913Z,94.95
2018-09-02T10:46:51.609Z,94.73
2018-09-02T10:49:22.165Z,94.68
2018-09-02T10:51:52.901Z,94.59
2018-09-02T10:54:22.543Z,94.75
2018-09-02T10:56:53.639Z,94.43
2018-09-02T10:59:23.120Z,94.64
2018-09-02T11:01:53.245Z,94.69
2018-09-02T11:04:22.877Z,94.71
2018-09-02T11:06:52.515Z,94.31
2018-09-02T11:09:22.031Z,94.01
2018-09-02T11:11:52.376Z,93.95
2018-09-02T11:14:22.003Z,94.35
2018-09-02T11:16:53.301Z,93.66
2018-09-02T11:19:22.591Z,93.88
2018-09-02T11:21:52.665Z,94.67
2018-09-02T11:24:22.572Z,94.15
2018-09-02T11:26:52.501Z,93.91
2018-09-02T11:29:22.243Z,94.27
2018-09-02T11:31:52.181Z,94.60
2018-09-02T11:34:23.238Z,93.82
2018-09-02T11:36:55.324Z,94.34
2018-09-02T11:39:24.547Z,93.57
2018-09-02T11:41:55.030Z,94.03
2018-09-02T11:44:24.467Z,93.49
2018-09-02T11:46:54.271Z,93.47
2018-09-02T11:49:23.513Z,93.63
2018-09-02T11:51:53.421Z,93.72
2018-09-02T11:54:23.461Z,94.39
2018-09-02T11:56:53.130Z,93.90
2018-09-02T11:59:22.710Z,93.77
2018-09-02T12:01:52.600Z,92.80
2018-09-02T12:04:22.509Z,92.50
2018-09-02T12:06:52.959Z,92.34
2018-09-02T12:09:22.667Z,93.55
2018-09-02T12:11:52.547Z,92.92
2018-09-02T12:14:22.769Z,91.62
2018-09-02T12:16:52.586Z,92.12
2018-09-02T12:19:22.669Z,92.30
2018-09-02T12:21:52.672Z,92.29
2018-09-02T12:24:22.561Z,91.87
2018-09-02T12:26:53.003Z,91.54
2018-09-02T12:29:23.203Z,91.72
2018-09-02T12:31:52.819Z,92.21
2018-09-02T12:34:22.908Z,91.96
2018-09-02T12:36:52.856Z,91.83
2018-09-02T12:39:22.840Z,91.63
2018-09-02T12:41:53.097Z,91.42
2018-09-02T12:44:22.541Z,91.28
2018-09-02T12:46:54.150Z,91.65
2018-09-02T12:49:25.010Z,92.38
2018-09-02T12:51:55.148Z,92.64
2018-09-02T12:54:24.700Z,92.50
2018-09-02T12:56:54.763Z,92.20
2018-09-02T12:59:25.934Z,92.24
2018-09-02T13:01:55.743Z,92.13
2018-09-02T13:04:24.983Z,92.66
2018-09-02T13:06:54.562Z,91.96
2018-09-02T13:09:25.616Z,92.84
2018-09-02T13:11:55.173Z,93.14
2018-09-02T13:14:24.449Z,92.90
2018-09-02T13:16:54.170Z,92.42
2018-09-02T13:19:24.658Z,92.35
2018-09-02T13:21:54.440Z,92.32
2018-09-02T13:24:24.373Z,92.69
2018-09-02T13:26:54.109Z,90.84
2018-09-02T13:29:23.315Z,90.24
2018-09-02T13:31:53.729Z,90.04
2018-09-02T13:34:23.020Z,89.17
2018-09-02T13:36:53.910Z,89.41
2018-09-02T13:39:23.425Z,89.51
2018-09-02T13:41:53.362Z,89.89
2018-09-02T13:44:24.874Z,89.69
2018-09-02T13:46:55.646Z,89.91
2018-09-02T13:49:24.958Z,90.22
2018-09-02T13:51:54.709Z,90.28
2018-09-02T13:54:24.849Z,89.71
2018-09-02T13:56:54.530Z,89.73
2018-09-02T13:59:23.794Z,89.04
2018-09-02T14:01:53.722Z,88.07
2018-09-02T14:04:23.762Z,88.54
2018-09-02T14:06:54.024Z,87.85
2018-09-02T14:09:23.323Z,88.50
2018-09-02T14:11:54.169Z,86.88
2018-09-02T14:14:24.043Z,87.33
2018-09-02T14:16:53.547Z,86.90
2018-09-02T14:24:20.798Z,83.48
2018-09-02T14:26:50.078Z,83.84
2018-09-02T14:29:19.804Z,84.28
2018-09-02T14:31:49.793Z,82.27
2018-09-02T14:34:19.555Z,81.52
2018-09-02T14:36:49.400Z,82.41
2018-09-02T14:39:20.477Z,82.68
2018-09-02T14:41:50.099Z,83.35
2018-09-02T14:44:19.649Z,82.64
2018-09-02T14:46:50.050Z,83.59
2018-09-02T14:49:20.069Z,83.06
2018-09-02T14:51:49.422Z,84.21
2018-09-02T14:54:20.923Z,84.06
2018-09-02T14:56:50.279Z,83.98
2018-09-02T14:59:19.489Z,84.68
2018-09-02T15:01:48.821Z,84.87
2018-09-02T15:04:18.397Z,85.19
2018-09-02T15:06:47.680Z,86.07
2018-09-02T15:09:18.106Z,85.22
2018-09-02T15:11:47.679Z,84.99
2018-09-02T15:14:16.891Z,85.72
2018-09-02T15:16:46.294Z,86.12
2018-09-02T15:19:19.207Z,86.01
2018-09-02T15:21:50.186Z,86.20
2018-09-02T15:24:23.915Z,86.39
2018-09-02T15:26:58.689Z,85.37
2018-09-02T15:29:30.172Z,86.14
2018-09-02T15:32:00.946Z,85.87
2018-09-02T15:34:30.307Z,86.11
2018-09-02T15:37:02.577Z,86.22
2018-09-02T15:39:32.912Z,87.26
2018-09-02T15:42:03.806Z,87.08
2018-09-02T15:44:33.246Z,87.61
2018-09-02T15:47:02.957Z,88.04
2018-09-02T15:49:34.647Z,88.17
2018-09-02T15:52:04.837Z,88.75
2018-09-02T15:54:37.800Z,89.15
2018-09-02T15:57:08.196Z,89.77
2018-09-02T15:59:40.377Z,89.37
2018-09-02T16:02:11.356Z,89.88
2018-09-02T16:04:41.291Z,90.62
2018-09-02T16:07:18.193Z,90.72
2018-09-02T16:09:47.772Z,91.17
2018-09-02T16:12:18.214Z,91.08
2018-09-02T16:14:48.938Z,90.95
2018-09-02T16:17:19.650Z,91.41
2018-09-02T16:19:50.640Z,91.25
2018-09-02T16:22:20.509Z,91.75
2018-09-02T16:24:50.791Z,91.67
2018-09-02T16:27:21.401Z,92.08
2018-09-02T16:29:51.982Z,92.53
2018-09-02T16:32:22.425Z,92.08
2018-09-02T16:34:52.341Z,92.57
2018-09-02T16:37:21.867Z,92.12
2018-09-02T16:39:52.806Z,92.18
2018-09-02T16:42:22.842Z,92.58
2018-09-02T16:44:54.582Z,92.32
2018-09-02T16:47:26.507Z,93.14
2018-09-02T16:49:56.806Z,92.78
2018-09-02T16:52:26.060Z,92.94
2018-09-02T16:54:56.096Z,93.56
2018-09-02T16:57:25.495Z,93.52
2018-09-02T16:59:55.734Z,94.05
2018-09-02T17:02:27.430Z,93.97
2018-09-02T17:05:02.911Z,94.29
2018-09-02T17:07:33.290Z,94.28
2018-09-02T17:10:03.268Z,94.15
2018-09-02T17:12:34.913Z,94.69
2018-09-02T17:15:04.757Z,94.23
2018-09-02T17:17:34.090Z,94.74
2018-09-02T17:20:03.910Z,94.95
2018-09-02T17:22:33.827Z,94.46
2018-09-02T17:25:05.088Z,94.66
2018-09-02T17:27:35.415Z,94.47
2018-09-02T17:30:05.191Z,95.10
2018-09-02T17:32:34.641Z,94.90
2018-09-02T17:35:04.871Z,95.06
2018-09-02T17:37:35.265Z,95.33
2018-09-02T17:40:05.430Z,95.42
2018-09-02T17:42:37.148Z,95.90
2018-09-02T17:45:07.083Z,95.70
2018-09-02T17:47:37.442Z,96.24
2018-09-02T17:50:07.857Z,96.25
2018-09-02T17:52:37.890Z,96.29
2018-09-02T17:55:09.369Z,96.02
2018-09-02T17:57:39.748Z,96.89
2018-09-02T18:00:11.036Z,96.31
2018-09-02T18:02:40.837Z,96.95
2018-09-02T18:05:10.805Z,96.95
2018-09-02T18:07:40.621Z,96.89
2018-09-02T18:10:15.204Z,97.45
2018-09-02T18:12:46.031Z,97.18
2018-09-02T18:15:18.163Z,97.55
2018-09-02T18:17:48.324Z,97.51
2018-09-02T18:20:18.893Z,97.38
2018-09-02T18:22:48.549Z,97.81
2018-09-02T18:50:03.454Z,97.97
2018-09-02T18:52:34.616Z,97.90
2018-09-02T18:55:05.282Z,98.61
2018-09-02T18:57:36.343Z,98.75
2018-09-02T19:00:09.200Z,98.78
2018-09-02T19:02:40.025Z,98.94
2018-09-02T19:05:09.706Z,99.34
2018-09-02T19:07:39.749Z,98.85
2018-09-02T19:10:09.764Z,98.81
2018-09-02T19:12:39.542Z,99.12
2018-09-02T19:15:09.290Z,99.57
2018-09-02T19:17:39.419Z,99.47
2018-09-02T19:20:09.429Z,99.30
2018-09-02T19:22:40.173Z,99.25
2018-09-02T19:25:09.868Z,100.00
2018-09-02T19:27:39.929Z,100.00
2018-09-02T19:30:10.818Z,99.93
2018-09-02T19:32:40.860Z,99.80
2018-09-02T19:35:12.208Z,100.00
2018-09-02T19:37:42.673Z,100.00
2018-09-02T19:40:13.041Z,100.00
2018-09-02T19:42:44.039Z,99.92
2018-09-02T19:45:15.430Z,100.00
2018-09-02T19:47:46.602Z,99.95
2018-09-02T19:50:17.187Z,100.00
2018-09-02T19:52:47.629Z,99.69
2018-09-02T19:55:17.635Z,99.63
2018-09-02T19:57:47.625Z,100.00
2018-09-02T20:00:17.599Z,100.00
2018-09-02T20:02:47.630Z,100.00
2018-09-02T20:05:19.626Z,100.00
2018-09-02T20:07:50.458Z,100.00
2018-09-02T20:10:20.480Z,100.00
2018-09-02T20:12:50.351Z,100.00
2018-09-02T20:15:20.215Z,100.00
2018-09-02T20:17:55.220Z,100.00
2018-09-02T20:20:24.932Z,100.00
2018-09-02T20:22:54.923Z,100.00
2018-09-02T20:25:25.801Z,100.00
2018-09-02T20:27:56.647Z,100.00
2018-09-02T20:30:27.136Z,100.00
2018-09-02T20:32:58.969Z,100.00
2018-09-02T20:35:33.185Z,100.00
2018-09-02T20:38:12.252Z,100.00
2018-09-02T20:40:48.026Z,100.00
2018-09-02T20:43:20.334Z,100.00
2018-09-02T20:45:52.372Z,100.00
2018-09-02T20:48:22.853Z,100.00
2018-09-02T20:50:52.218Z,100.00
2018-09-02T20:53:23.904Z,100.00
2018-09-02T20:55:53.994Z,100.00
2018-09-02T20:58:25.219Z,100.00
2018-09-02T21:00:54.998Z,100.00
2018-09-02T21:03:26.419Z,100.00
2018-09-02T21:05:55.964Z,100.00
2018-09-02T21:08:25.228Z,100.00
2018-09-02T21:10:54.762Z,100.00
2018-09-02T21:13:24.127Z,100.00
2018-09-02T21:15:53.767Z,100.00
2018-09-02T21:18:23.006Z,100.00
2018-09-02T21:20:53.576Z,100.00
2018-09-02T21:23:22.798Z,100.00
2018-09-02T21:25:54.287Z,100.00
2018-09-02T21:28:24.260Z,100.00
2018-09-02T21:30:53.865Z,100.00
2018-09-02T21:33:23.089Z,100.00
2018-09-02T21:35:52.382Z,100.00
2018-09-02T21:38:24.258Z,100.00
2018-09-02T21:40:53.920Z,100.00
2018-09-02T21:43:25.433Z,100.00
2018-09-02T21:45:55.151Z,100.00
2018-09-02T21:48:24.350Z,100.00
2018-09-02T21:50:53.920Z,100.00
2018-09-02T21:53:23.181Z,100.00
2018-09-02T21:55:52.441Z,100.00
2018-09-02T21:58:22.568Z,100.00
2018-09-02T22:00:54.849Z,100.00
2018-09-02T22:03:24.113Z,100.00
2018-09-02T22:05:53.341Z,100.00
2018-09-02T22:08:24.549Z,100.00
2018-09-02T22:10:54.175Z,100.00
2018-09-02T22:13:23.723Z,100.00
2018-09-02T22:15:53.002Z,100.00
2018-09-02T22:18:22.472Z,100.00
2018-09-02T22:20:51.715Z,100.00
2018-09-02T22:23:20.881Z,100.00
2018-09-02T22:25:50.153Z,100.00
2018-09-02T22:28:19.571Z,100.00
2018-09-02T22:30:51.536Z,100.00
2018-09-02T22:33:20.807Z,100.00
2018-09-02T22:35:50.131Z,100.00
2018-09-02T22:38:21.065Z,100.00
2018-09-02T22:40:50.345Z,100.00
2018-09-02T22:43:19.693Z,100.00
2018-09-02T22:45:49.079Z,100.00
2018-09-02T22:48:18.321Z,100.00
2018-09-02T22:50:47.582Z,100.00
2018-09-02T22:53:16.795Z,100.00
2018-09-02T22:55:46.105Z,100.00
2018-09-02T22:58:15.411Z,100.00
2018-09-02T23:00:44.672Z,100.00
2018-09-02T23:03:13.903Z,100.00
2018-09-02T23:05:43.117Z,100.00
2018-09-02T23:08:12.326Z,100.00
2018-09-02T23:10:41.585Z,100.00
2018-09-02T23:13:11.627Z,100.00
2018-09-02T23:15:40.937Z,100.00
2018-09-02T23:18:10.135Z,100.00
2018-09-02T23:20:39.490Z,100.00
2018-09-02T23:23:08.821Z,100.00
2018-09-02T23:25:38.175Z,100.00
2018-09-02T23:28:08.609Z,100.00
2018-09-02T23:30:37.772Z,100.00
2018-09-02T23:33:06.957Z,100.00
2018-09-02T23:35:36.220Z,100.00
2018-09-02T23:38:05.724Z,100.00
2018-09-02T23:40:34.967Z,100.00
2018-09-02T23:43:04.181Z,100.00
2018-09-02T23:45:33.497Z,100.00
2018-09-02T23:48:04.414Z,100.00
2018-09-02T23:50:33.581Z,100.00
2018-09-02T23:53:02.927Z,100.00
2018-09-02T23:55:32.149Z,100.00
2018-09-02T23:58:02.097Z,100.00
